Manea, United Kingdom
Current Conditions -  °F | °C
As of 6:58 PM on Sunday 21 Dec 2014 (Local Time) from EGUN Reporting Station
Overcast Overcast  
Wind Chill: 11°   Ceiling: 1500
Heat Index: 11°   Visibility: 6mi
Dew Point:   Wind: 21mph
Humidity: 83%   Direction: 230°SW
Pressure: 30.09"   Gusts: 33mph
Location:  52.48°N, 0.18°E
Report Text: EGUN 211858Z AUTO 23018G29KT 9999 OVC015 11/08 A3009 RMK AO2 PK WND 23029/50 SLP193 T01050077 $
Loading
Personal Weather Stations






























Interactive Weather Map New forecast layout! Learn more

10-Day Weather Forecast

Advertisements
Track Severe Weather on mobile